Time;durP1;ratioP1;P1;durP2;ratioP2;P2;SDS_P1;SDS_P2;PMS_P1;PMS_P2;Temp;Humidity;BMP_temperature;BMP_pressure;BME280_temperature;BME280_humidity;BME280_pressure;Samples;Min_cycle;Max_cycle;Signal;HPM_P1;HPM_P2
2023/03/29 00:01:56;;;;;;;;;;;;;;;17.22;67.81;101069.47;7407297;19;1864;-45
2023/03/29 00:04:26;;;;;;;;;;;;;;;17.21;68.08;101075.75;7405664;19;1038;-45
2023/03/29 00:07:02;;;;;;;;;;;;;;;17.21;67.72;101086.47;7406655;19;1790;-45
2023/03/29 00:09:31;;;;;;;;;;;;;;;17.20;68.13;101088.28;7406142;19;1694;-45
2023/03/29 00:12:00;;;;;;;;;;;;;;;17.39;68.79;101089.56;7403831;19;1071;-45
2023/03/29 00:14:30;;;;;;;;;;;;;;;17.49;68.52;101080.72;7403757;19;1955;-46
2023/03/29 00:16:58;;;;;;;;;;;;;;;17.32;68.60;101083.00;7407912;19;1265;-45
2023/03/29 00:19:28;;;;;;;;;;;;;;;17.24;67.96;101084.41;7407914;19;988;-46
2023/03/29 00:21:59;;;;;;;;;;;;;;;17.18;68.26;101084.88;7407259;19;1857;-45
2023/03/29 00:24:28;;;;;;;;;;;;;;;17.18;68.03;101092.06;7406660;19;2131;-45
2023/03/29 00:26:56;;;;;;;;;;;;;;;17.14;68.53;101090.56;7406104;19;2045;-45
2023/03/29 00:29:25;;;;;;;;;;;;;;;17.12;68.38;101088.00;7403090;19;1046;-45
2023/03/29 00:31:54;;;;;;;;;;;;;;;17.10;68.56;101096.13;7406622;19;1988;-45
2023/03/29 00:34:23;;;;;;;;;;;;;;;17.12;68.65;101104.03;7407221;19;1788;-45
2023/03/29 00:36:51;;;;;;;;;;;;;;;17.12;68.46;101097.84;7403488;19;1829;-45
2023/03/29 00:39:22;;;;;;;;;;;;;;;17.07;68.28;101085.69;7404654;19;1357;-45
2023/03/29 00:41:52;;;;;;;;;;;;;;;17.06;68.45;101097.34;7404579;19;1066;-45
2023/03/29 00:44:37;;;;;;;;;;;;;;;17.03;68.16;101094.91;7402093;19;1872;-45
2023/03/29 00:47:06;;;;;;;;;;;;;;;17.03;68.11;101088.69;7402135;19;1914;-45
2023/03/29 00:49:36;;;;;;;;;;;;;;;17.03;68.21;101083.34;7402080;19;2119;-45
2023/03/29 00:52:04;;;;;;;;;;;;;;;17.02;68.41;101087.00;7404002;19;1896;-45
2023/03/29 00:54:39;;;;;;;;;;;;;;;17.00;68.15;101078.25;7403655;19;1830;-45
2023/03/29 00:57:14;;;;;;;;;;;;;;;17.00;68.35;101104.97;7400132;19;2206;-45
2023/03/29 00:59:45;;;;;;;;;;;;;;;17.02;68.23;101085.19;7399672;19;936;-45
2023/03/29 01:02:14;;;;;;;;;;;;;;;17.01;68.09;101091.50;7402897;19;1841;-45
2023/03/29 01:04:49;;;;;;;;;;;;;;;17.01;68.36;101093.31;7401877;19;1958;-45
2023/03/29 01:07:20;;;;;;;;;;;;;;;17.01;68.36;101088.84;7400428;19;1947;-45
2023/03/29 01:09:54;;;;;;;;;;;;;;;17.05;68.09;101102.78;7402382;19;1772;-45
2023/03/29 01:12:26;;;;;;;;;;;;;;;17.00;67.62;101079.09;7399853;19;1920;-45
2023/03/29 01:14:56;;;;;;;;;;;;;;;16.97;68.07;101090.03;7399061;19;1843;-46
2023/03/29 01:17:25;;;;;;;;;;;;;;;16.97;68.13;101090.03;7399183;19;1118;-45
2023/03/29 01:19:57;;;;;;;;;;;;;;;16.98;67.80;101106.91;7403979;19;1032;-45
2023/03/29 01:22:32;;;;;;;;;;;;;;;16.97;68.45;101111.41;7403338;19;1904;-45
2023/03/29 01:25:10;;;;;;;;;;;;;;;16.94;68.01;101094.75;7403322;19;1966;-45
2023/03/29 01:27:49;;;;;;;;;;;;;;;16.94;67.64;101095.59;7403103;19;970;-45
2023/03/29 01:30:21;;;;;;;;;;;;;;;16.93;67.82;101090.34;7403273;19;1471;-45
2023/03/29 01:32:51;;;;;;;;;;;;;;;16.91;68.07;101093.16;7402777;19;1949;-46
2023/03/29 01:35:23;;;;;;;;;;;;;;;16.89;67.71;101087.06;7401270;19;1031;-45
2023/03/29 01:37:56;;;;;;;;;;;;;;;16.89;67.77;101095.06;7400725;19;1051;-45
2023/03/29 01:40:26;;;;;;;;;;;;;;;16.87;67.75;101095.19;7254606;19;2818168;-45
2023/03/29 01:43:02;;;;;;;;;;;;;;;16.97;67.91;101091.81;7400684;19;1849;-45
2023/03/29 01:45:35;;;;;;;;;;;;;;;17.46;66.91;101107.69;7400737;19;1279;-45
2023/03/29 01:48:12;;;;;;;;;;;;;;;18.26;64.45;101080.09;7404381;19;1917;-45
2023/03/29 01:50:45;;;;;;;;;;;;;;;19.30;61.66;101075.19;7404680;19;1885;-45
2023/03/29 01:53:17;;;;;;;;;;;;;;;19.62;60.95;101076.97;7404134;19;1089;-45
2023/03/29 01:55:51;;;;;;;;;;;;;;;19.94;60.35;101070.66;7404069;19;1039;-45
2023/03/29 01:58:24;;;;;;;;;;;;;;;19.85;60.35;101081.19;7403746;19;2185;-45
2023/03/29 02:00:54;;;;;;;;;;;;;;;19.52;61.30;101086.75;7400168;19;1964;-45
2023/03/29 02:03:25;;;;;;;;;;;;;;;19.53;61.76;101085.78;7399693;19;1855;-45
2023/03/29 02:05:56;;;;;;;;;;;;;;;19.69;61.48;101094.22;7404565;19;1030;-45
2023/03/29 02:08:25;;;;;;;;;;;;;;;19.79;61.06;101089.78;7400829;19;1865;-45
2023/03/29 02:10:58;;;;;;;;;;;;;;;19.94;60.49;101092.97;7400493;19;1026;-45
2023/03/29 02:13:29;;;;;;;;;;;;;;;19.99;60.24;101088.03;7399659;19;1138;-45
2023/03/29 02:15:58;;;;;;;;;;;;;;;20.00;60.23;101080.84;7403807;19;1809;-45
2023/03/29 02:18:28;;;;;;;;;;;;;;;20.16;60.12;101091.94;7399534;19;1023;-45
2023/03/29 02:20:57;;;;;;;;;;;;;;;20.07;59.97;101084.69;7403733;19;1627;-45
2023/03/29 02:23:32;;;;;;;;;;;;;;;20.00;60.38;101099.66;7401939;19;1918;-45
2023/03/29 02:26:05;;;;;;;;;;;;;;;20.13;59.90;101115.50;7399190;19;1015;-45
2023/03/29 02:28:38;;;;;;;;;;;;;;;20.14;60.19;101107.34;7402053;19;1695;-45
2023/03/29 02:31:11;;;;;;;;;;;;;;;20.12;60.02;101103.94;7401721;19;1528;-45
2023/03/29 02:33:41;;;;;;;;;;;;;;;20.13;60.05;101100.25;7402520;19;948;-45
2023/03/29 02:36:13;;;;;;;;;;;;;;;20.13;60.36;101119.03;7403333;19;1877;-45
2023/03/29 02:38:43;;;;;;;;;;;;;;;20.08;60.44;101109.72;7402442;19;990;-45
2023/03/29 02:41:12;;;;;;;;;;;;;;;20.28;59.92;101111.50;7400833;19;1101;-45
2023/03/29 02:43:45;;;;;;;;;;;;;;;20.25;59.70;101115.31;7402540;19;1860;-45
2023/03/29 02:46:14;;;;;;;;;;;;;;;20.21;59.85;101100.47;7399413;19;1058;-45
2023/03/29 02:48:43;;;;;;;;;;;;;;;20.12;60.07;101098.56;7398969;19;1024;-45
2023/03/29 02:51:16;;;;;;;;;;;;;;;20.28;59.58;101108.81;7403116;19;2033;-46
2023/03/29 02:53:46;;;;;;;;;;;;;;;20.30;60.04;101114.06;7402753;19;976;-45
2023/03/29 02:56:16;;;;;;;;;;;;;;;20.30;59.91;101116.72;7402863;19;1896;-46
2023/03/29 02:58:48;;;;;;;;;;;;;;;20.21;60.35;101118.38;7401618;19;1926;-45
2023/03/29 03:01:19;;;;;;;;;;;;;;;20.26;59.96;101117.00;7399260;19;2135;-45
2023/03/29 03:03:49;;;;;;;;;;;;;;;20.41;59.32;101120.16;7399670;19;1840;-45
2023/03/29 03:06:20;;;;;;;;;;;;;;;20.38;59.74;101127.66;7397986;19;1000;-45
2023/03/29 03:08:51;;;;;;;;;;;;;;;20.44;59.52;101141.38;7399156;19;1042;-45
2023/03/29 03:11:20;;;;;;;;;;;;;;;20.51;59.24;101133.59;7397724;19;1937;-45
2023/03/29 03:13:51;;;;;;;;;;;;;;;20.40;59.85;101142.63;7401355;19;1598;-45
2023/03/29 03:16:19;;;;;;;;;;;;;;;20.59;59.04;101171.44;7401060;19;1457;-45
2023/03/29 03:18:51;;;;;;;;;;;;;;;20.59;58.75;101149.97;7400453;19;1118;-45
2023/03/29 03:21:19;;;;;;;;;;;;;;;20.56;58.84;101144.81;7401175;19;1604;-45
2023/03/29 03:23:50;;;;;;;;;;;;;;;20.66;58.81;101153.78;7399419;19;1847;-45
2023/03/29 03:26:19;;;;;;;;;;;;;;;20.66;58.81;101156.47;7399606;19;2095;-45
2023/03/29 03:28:53;;;;;;;;;;;;;;;20.59;59.29;101165.22;7397349;19;1070;-45
2023/03/29 03:31:21;;;;;;;;;;;;;;;20.44;59.63;101167.41;7397997;19;971;-45
2023/03/29 03:33:56;;;;;;;;;;;;;;;20.27;59.80;101183.16;7397501;19;1106;-45
2023/03/29 03:36:27;;;;;;;;;;;;;;;20.45;59.17;101169.94;7400576;19;1973;-45
2023/03/29 03:38:56;;;;;;;;;;;;;;;20.57;58.84;101173.41;7398235;19;1213;-45
2023/03/29 03:41:25;;;;;;;;;;;;;;;20.44;59.50;101176.28;7400690;19;1491;-45
2023/03/29 03:43:56;;;;;;;;;;;;;;;20.44;59.45;101178.97;7400151;19;1857;-45
2023/03/29 03:46:24;;;;;;;;;;;;;;;20.64;58.60;101179.94;7401820;19;1932;-45
2023/03/29 03:48:54;;;;;;;;;;;;;;;20.59;59.12;101194.75;7401150;19;2036;-45
2023/03/29 03:51:23;;;;;;;;;;;;;;;20.43;59.31;101188.03;7401293;19;1372;-45
2023/03/29 03:53:51;;;;;;;;;;;;;;;20.29;59.81;101195.59;7400254;19;1626;-45
2023/03/29 03:56:19;;;;;;;;;;;;;;;20.45;59.19;101195.94;7400883;19;1913;-46
2023/03/29 03:58:49;;;;;;;;;;;;;;;20.36;59.74;101199.44;7400254;19;2121;-45
2023/03/29 04:01:20;;;;;;;;;;;;;;;19.97;60.81;101218.84;7399139;19;1150;-45
2023/03/29 04:03:48;;;;;;;;;;;;;;;19.50;61.72;101222.81;7396697;19;2011;-46
2023/03/29 04:06:16;;;;;;;;;;;;;;;19.15;62.38;101219.41;7397025;19;963;-45
2023/03/29 04:08:46;;;;;;;;;;;;;;;18.93;62.84;101246.25;7399589;19;1705;-45
2023/03/29 04:11:15;;;;;;;;;;;;;;;18.77;63.06;101219.81;7399356;19;1860;-45
2023/03/29 04:13:45;;;;;;;;;;;;;;;18.73;63.70;101258.53;7398721;19;1585;-46
2023/03/29 04:16:14;;;;;;;;;;;;;;;19.03;63.09;101244.53;7398628;19;1819;-45
2023/03/29 04:18:45;;;;;;;;;;;;;;;19.48;61.85;101231.88;7398414;19;1582;-45
2023/03/29 04:21:14;;;;;;;;;;;;;;;19.68;61.33;101243.63;7398389;19;1983;-45
2023/03/29 04:23:45;;;;;;;;;;;;;;;19.75;61.01;101246.66;7398828;19;1873;-45
2023/03/29 04:26:14;;;;;;;;;;;;;;;19.77;61.19;101244.69;7399256;19;1585;-46
2023/03/29 04:28:43;;;;;;;;;;;;;;;19.67;61.58;101254.47;7400011;19;1308;-45
2023/03/29 04:31:12;;;;;;;;;;;;;;;19.70;61.31;101254.22;7397937;19;1963;-45
2023/03/29 04:33:50;;;;;;;;;;;;;;;19.66;61.68;101267.03;7405745;19;1649;-45
2023/03/29 04:36:19;;;;;;;;;;;;;;;19.63;61.30;101244.97;7407577;19;1173;-45
2023/03/29 04:38:53;;;;;;;;;;;;;;;19.67;61.46;101270.56;7406253;19;1840;-45
2023/03/29 04:41:22;;;;;;;;;;;;;;;19.54;61.41;101261.84;7405921;19;1914;-46
2023/03/29 04:43:50;;;;;;;;;;;;;;;19.80;61.51;101268.59;7405778;19;1860;-46
2023/03/29 04:46:19;;;;;;;;;;;;;;;20.03;60.27;101271.19;7405463;19;1644;-45
2023/03/29 04:48:51;;;;;;;;;;;;;;;19.96;60.32;101267.31;7405455;19;1605;-46
2023/03/29 04:51:20;;;;;;;;;;;;;;;19.68;60.34;101283.03;7404500;19;1570;-46
2023/03/29 04:53:50;;;;;;;;;;;;;;;19.53;60.62;101289.66;7404186;19;1394;-46
2023/03/29 04:56:19;;;;;;;;;;;;;;;19.08;61.71;101312.88;7404641;19;1973;-46
2023/03/29 04:58:49;;;;;;;;;;;;;;;18.74;61.72;101308.44;7404083;19;1858;-46
2023/03/29 05:01:17;;;;;;;;;;;;;;;18.61;62.36;101308.56;7401812;19;1020;-46
2023/03/29 05:03:54;;;;;;;;;;;;;;;18.82;61.97;101298.88;7400343;19;1928;-45
2023/03/29 05:06:27;;;;;;;;;;;;;;;19.40;60.43;101290.66;7400638;19;955;-47
2023/03/29 05:08:56;;;;;;;;;;;;;;;22.17;53.23;101288.03;7405057;19;1075;-51
2023/03/29 05:11:26;;;;;;;;;;;;;;;24.99;46.84;101285.28;7397477;19;1719;-46
2023/03/29 05:13:56;;;;;;;;;;;;;;;26.24;43.09;101293.50;7403205;19;1238;-46
2023/03/29 05:16:25;;;;;;;;;;;;;;;24.52;46.16;101304.63;7403691;19;1538;-46
2023/03/29 05:18:56;;;;;;;;;;;;;;;22.31;51.49;101316.41;7400887;19;1840;-46
2023/03/29 05:21:25;;;;;;;;;;;;;;;21.24;54.34;101310.88;7403956;19;2093;-46
2023/03/29 05:23:54;;;;;;;;;;;;;;;20.67;56.27;101318.53;7404866;19;1835;-46
2023/03/29 05:26:22;;;;;;;;;;;;;;;20.46;56.79;101322.06;7405311;19;1022;-46
2023/03/29 05:28:51;;;;;;;;;;;;;;;20.26;57.14;101310.34;7404523;19;2137;-46
2023/03/29 05:31:20;;;;;;;;;;;;;;;20.29;57.04;101319.97;7401718;19;1834;-46
2023/03/29 05:33:49;;;;;;;;;;;;;;;20.31;57.53;101325.22;7404448;19;995;-46
2023/03/29 05:36:20;;;;;;;;;;;;;;;20.28;57.52;101339.78;7404255;19;2058;-46
2023/03/29 05:38:50;;;;;;;;;;;;;;;20.40;57.64;101338.72;7404196;19;1911;-46
2023/03/29 05:41:19;;;;;;;;;;;;;;;20.41;57.37;101331.50;7404040;19;2089;-46
2023/03/29 05:43:47;;;;;;;;;;;;;;;20.41;57.23;101335.06;7399358;19;1976;-46
2023/03/29 05:46:16;;;;;;;;;;;;;;;20.42;57.56;101330.53;7402127;19;1752;-46
2023/03/29 05:48:44;;;;;;;;;;;;;;;20.44;57.47;101350.91;7402572;19;2049;-46
2023/03/29 05:51:12;;;;;;;;;;;;;;;20.59;57.25;101343.41;7402993;19;1656;-46
2023/03/29 05:53:44;;;;;;;;;;;;;;;20.70;57.31;101345.16;7402934;19;1331;-46
2023/03/29 05:56:15;;;;;;;;;;;;;;;20.88;56.44;101348.09;7401965;19;2077;-46
2023/03/29 05:58:45;;;;;;;;;;;;;;;20.82;56.63;101349.47;7403153;19;1823;-46
2023/03/29 06:01:16;;;;;;;;;;;;;;;20.68;56.94;101351.66;7400546;19;2198;-46
2023/03/29 06:03:47;;;;;;;;;;;;;;;20.61;57.54;101352.19;7403330;19;1595;-46
2023/03/29 06:06:16;;;;;;;;;;;;;;;20.61;57.50;101352.19;7401311;19;1933;-46
2023/03/29 06:08:47;;;;;;;;;;;;;;;20.66;57.25;101358.00;7401855;19;1533;-46
2023/03/29 06:11:16;;;;;;;;;;;;;;;20.66;57.67;101344.56;7401316;19;1962;-46
2023/03/29 06:13:45;;;;;;;;;;;;;;;20.71;57.34;101348.69;7401772;19;1643;-46
2023/03/29 06:16:13;;;;;;;;;;;;;;;20.76;57.32;101370.66;7400693;19;1625;-46
2023/03/29 06:18:41;;;;;;;;;;;;;;;20.79;57.25;101359.63;7401963;19;1619;-46
2023/03/29 06:21:12;;;;;;;;;;;;;;;20.83;57.31;101361.94;7399857;19;1884;-46
2023/03/29 06:23:40;;;;;;;;;;;;;;;20.58;58.71;101373.91;7399720;19;2245;-48
2023/03/29 06:26:12;;;;;;;;;;;;;;;20.23;59.71;101361.66;7400806;19;1863;-48
2023/03/29 06:28:41;;;;;;;;;;;;;;;19.94;60.22;101363.25;7402367;19;1285;-48
2023/03/29 06:31:13;;;;;;;;;;;;;;;19.76;60.87;101370.97;7402155;19;1321;-48
2023/03/29 06:33:44;;;;;;;;;;;;;;;19.60;61.29;101382.06;7401420;19;1102;-48
2023/03/29 06:36:14;;;;;;;;;;;;;;;19.55;61.06;101370.84;7401865;19;1579;-49
2023/03/29 06:38:47;;;;;;;;;;;;;;;19.92;60.74;101382.16;7401335;19;1578;-48
2023/03/29 06:41:18;;;;;;;;;;;;;;;20.22;60.14;101384.09;7401084;19;1647;-49
2023/03/29 06:43:47;;;;;;;;;;;;;;;20.04;60.56;101380.28;7401133;19;2021;-48
2023/03/29 06:46:16;;;;;;;;;;;;;;;19.84;61.38;101371.19;7400855;19;1826;-48
2023/03/29 06:48:55;;;;;;;;;;;;;;;19.67;61.63;101367.16;7400598;19;1785;-48
2023/03/29 06:51:23;;;;;;;;;;;;;;;19.55;61.82;101357.44;7402583;19;1511;-48
2023/03/29 06:53:52;;;;;;;;;;;;;;;19.75;60.93;101359.38;7400549;19;1263;-48
2023/03/29 06:56:24;;;;;;;;;;;;;;;20.20;59.60;101363.75;7401887;19;1982;-48
2023/03/29 06:58:53;;;;;;;;;;;;;;;20.28;59.30;101366.63;7402387;19;1829;-49
2023/03/29 07:01:22;;;;;;;;;;;;;;;20.00;61.00;101363.56;7401320;19;1532;-48
2023/03/29 07:03:51;;;;;;;;;;;;;;;19.66;60.11;101370.84;7401100;19;1840;-48
2023/03/29 07:06:19;;;;;;;;;;;;;;;19.51;60.39;101385.50;7400095;19;1865;-48
2023/03/29 07:08:51;;;;;;;;;;;;;;;19.38;58.58;101389.16;7400539;19;1904;-48
2023/03/29 07:11:20;;;;;;;;;;;;;;;19.77;56.07;101369.97;7401026;19;1632;-48
2023/03/29 07:13:51;;;;;;;;;;;;;;;19.95;55.61;101378.34;7399763;19;1897;-48
2023/03/29 07:16:20;;;;;;;;;;;;;;;19.83;56.02;101373.00;7400554;19;1281;-48
2023/03/29 07:18:48;;;;;;;;;;;;;;;19.58;55.50;101360.72;7399957;19;1794;-48
2023/03/29 07:21:17;;;;;;;;;;;;;;;19.41;54.10;101378.19;7399190;19;1594;-48
2023/03/29 07:23:46;;;;;;;;;;;;;;;19.36;54.35;101369.66;7399164;19;1697;-48
2023/03/29 07:26:15;;;;;;;;;;;;;;;19.61;53.69;101383.75;7398769;19;1842;-46
2023/03/29 07:28:44;;;;;;;;;;;;;;;19.85;52.90;101375.56;7400431;19;1617;-46
2023/03/29 07:31:16;;;;;;;;;;;;;;;20.14;53.39;101375.00;7393893;19;1612;-48
2023/03/29 07:33:46;;;;;;;;;;;;;;;20.16;53.83;101360.47;7400129;19;1901;-47
2023/03/29 07:36:15;;;;;;;;;;;;;;;20.07;55.66;101358.53;7399097;19;1415;-48
2023/03/29 07:38:45;;;;;;;;;;;;;;;19.79;56.57;101365.34;7399910;19;1950;-48
2023/03/29 07:41:15;;;;;;;;;;;;;;;19.57;58.30;101361.69;7398631;19;1553;-48
2023/03/29 07:43:44;;;;;;;;;;;;;;;19.45;59.58;101363.53;7400848;19;1857;-48
2023/03/29 07:46:12;;;;;;;;;;;;;;;19.54;59.35;101378.06;7397612;19;1852;-48
2023/03/29 07:48:46;;;;;;;;;;;;;;;19.88;58.60;101382.53;7401153;19;1501;-48
2023/03/29 07:51:15;;;;;;;;;;;;;;;19.98;58.82;101370.06;7399095;19;1313;-48
2023/03/29 07:53:44;;;;;;;;;;;;;;;19.86;59.38;101362.03;7400393;19;1377;-48
2023/03/29 07:56:12;;;;;;;;;;;;;;;19.91;59.47;101371.53;7400237;19;1130;-48
2023/03/29 07:58:41;;;;;;;;;;;;;;;19.66;59.79;101370.84;7399638;19;1553;-48
2023/03/29 08:01:14;;;;;;;;;;;;;;;19.48;60.85;101368.66;7398357;19;1432;-48
2023/03/29 08:03:42;;;;;;;;;;;;;;;19.97;58.82;101353.06;7399535;19;1251;-48
2023/03/29 08:06:14;;;;;;;;;;;;;;;20.32;58.24;101361.84;7399072;19;1849;-48
2023/03/29 08:08:44;;;;;;;;;;;;;;;20.16;59.05;101362.28;7406743;19;1410;-48
2023/03/29 08:11:14;;;;;;;;;;;;;;;19.76;60.36;101353.03;7407794;19;1833;-48
2023/03/29 08:13:42;;;;;;;;;;;;;;;19.51;61.04;101351.47;7406467;19;1443;-49
2023/03/29 08:16:11;;;;;;;;;;;;;;;19.38;61.31;101362.34;7406144;19;1758;-47
2023/03/29 08:18:46;;;;;;;;;;;;;;;19.65;60.83;101348.50;7405782;19;1163;-48
2023/03/29 08:21:17;;;;;;;;;;;;;;;20.08;59.52;101349.50;7406449;19;1570;-48
2023/03/29 08:23:47;;;;;;;;;;;;;;;19.83;60.11;101348.84;7406610;19;1659;-48
2023/03/29 08:26:16;;;;;;;;;;;;;;;19.56;60.86;101345.75;7405567;19;1846;-48
2023/03/29 08:28:45;;;;;;;;;;;;;;;19.36;61.69;101358.06;7407697;19;1251;-48
2023/03/29 08:31:13;;;;;;;;;;;;;;;19.22;61.84;101360.03;7406380;19;1804;-49
2023/03/29 08:33:43;;;;;;;;;;;;;;;19.47;61.74;101355.38;7406029;19;1583;-48
2023/03/29 08:36:11;;;;;;;;;;;;;;;19.88;60.83;101347.66;7406892;19;2030;-48
2023/03/29 08:38:43;;;;;;;;;;;;;;;19.76;61.37;101350.34;7406386;19;1631;-48
2023/03/29 08:41:19;;;;;;;;;;;;;;;19.54;61.72;101328.94;7403915;19;1628;-48
2023/03/29 08:44:00;;;;;;;;;;;;;;;19.29;63.18;101336.25;7404341;19;1880;-48
2023/03/29 08:46:35;;;;;;;;;;;;;;;19.35;62.77;101345.66;7404376;19;1856;-48
2023/03/29 08:49:05;;;;;;;;;;;;;;;19.95;61.14;101340.78;7404868;19;1010;-48
2023/03/29 08:51:37;;;;;;;;;;;;;;;19.90;61.10;101340.31;7406245;19;1641;-48
2023/03/29 08:54:18;;;;;;;;;;;;;;;19.61;62.26;101340.84;7406399;19;1726;-48
2023/03/29 08:56:47;;;;;;;;;;;;;;;19.34;62.73;101344.78;7406602;19;991;-47
2023/03/29 08:59:20;;;;;;;;;;;;;;;19.21;63.27;101344.06;7406209;19;1177;-45
2023/03/29 09:01:49;;;;;;;;;;;;;;;19.72;61.80;101346.22;7404875;19;1501;-45
2023/03/29 09:04:20;;;;;;;;;;;;;;;19.95;60.69;101332.72;7405522;19;1552;-45
2023/03/29 09:06:51;;;;;;;;;;;;;;;19.58;59.89;101347.31;7404408;19;1861;-44
2023/03/29 09:09:22;;;;;;;;;;;;;;;19.19;60.05;101346.03;7405996;19;1000;-45
2023/03/29 09:12:00;;;;;;;;;;;;;;;19.04;59.95;101334.72;7401851;19;1029;-44
2023/03/29 09:14:40;;;;;;;;;;;;;;;18.87;59.79;101338.72;7404843;19;1679;-45
2023/03/29 09:17:18;;;;;;;;;;;;;;;18.82;59.96;101348.91;7404702;19;1038;-45
2023/03/29 09:19:50;;;;;;;;;;;;;;;18.78;60.29;101345.63;7401915;19;1938;-45
2023/03/29 09:22:23;;;;;;;;;;;;;;;18.82;59.76;101360.50;7402047;19;1987;-45
2023/03/29 09:25:00;;;;;;;;;;;;;;;18.79;60.09;101341.09;7404276;19;1726;-45
2023/03/29 09:27:36;;;;;;;;;;;;;;;18.77;59.89;101353.78;7402702;19;1042;-45
2023/03/29 09:30:14;;;;;;;;;;;;;;;18.68;59.86;101358.00;7406167;19;963;-45
2023/03/29 09:32:46;;;;;;;;;;;;;;;18.58;60.26;101344.50;7404209;19;1035;-45
2023/03/29 09:35:20;;;;;;;;;;;;;;;18.45;60.87;101351.75;7403076;19;2001;-45
2023/03/29 09:37:51;;;;;;;;;;;;;;;18.37;60.73;101344.31;7401920;19;1840;-45
2023/03/29 09:40:24;;;;;;;;;;;;;;;18.31;60.85;101346.59;7403197;19;1815;-45
2023/03/29 09:42:56;;;;;;;;;;;;;;;18.36;60.85;101349.78;7402308;19;1932;-45
2023/03/29 09:45:24;;;;;;;;;;;;;;;18.43;60.84;101341.16;7402014;19;1829;-45
2023/03/29 09:47:56;;;;;;;;;;;;;;;18.45;60.37;101357.09;7402536;19;1031;-44
2023/03/29 09:50:30;;;;;;;;;;;;;;;18.51;60.38;101362.00;7404981;19;1092;-45
2023/03/29 09:52:59;;;;;;;;;;;;;;;18.48;60.63;101375.59;7400340;19;1059;-44
2023/03/29 09:55:32;;;;;;;;;;;;;;;18.42;61.04;101389.47;7402465;19;982;-44
2023/03/29 09:58:12;;;;;;;;;;;;;;;18.37;60.93;101386.31;7401507;19;1937;-45
2023/03/29 10:00:41;;;;;;;;;;;;;;;18.38;60.98;101388.00;7400073;19;1003;-45
2023/03/29 10:03:09;;;;;;;;;;;;;;;18.34;60.92;101379.34;7404624;19;1597;-44
2023/03/29 10:05:38;;;;;;;;;;;;;;;18.31;61.24;101390.28;7404075;19;1859;-45
2023/03/29 10:08:16;;;;;;;;;;;;;;;18.31;61.36;101386.78;7402452;19;1005;-44
2023/03/29 10:10:45;;;;;;;;;;;;;;;18.30;61.26;101385.88;7401494;19;1838;-45
2023/03/29 10:13:20;;;;;;;;;;;;;;;18.29;61.00;101395.75;7400526;19;1117;-45
2023/03/29 10:15:58;;;;;;;;;;;;;;;18.12;61.30;101377.41;7400779;19;1877;-45
2023/03/29 10:18:28;;;;;;;;;;;;;;;18.09;61.44;101375.84;7400166;19;1583;-45
2023/03/29 10:21:01;;;;;;;;;;;;;;;18.05;61.26;101378.88;7399816;19;967;-44
2023/03/29 10:23:31;;;;;;;;;;;;;;;18.11;61.38;101367.69;7399841;19;962;-45
2023/03/29 10:26:03;;;;;;;;;;;;;;;18.10;60.92;101357.94;7398694;19;1871;-45
2023/03/29 10:28:40;;;;;;;;;;;;;;;18.14;61.03;101374.63;7399403;19;963;-45
2023/03/29 10:31:09;;;;;;;;;;;;;;;17.92;61.41;101383.41;7400856;19;1782;-44
2023/03/29 10:33:41;;;;;;;;;;;;;;;17.88;62.03;101388.97;7399079;19;1022;-45
2023/03/29 10:36:11;;;;;;;;;;;;;;;17.96;61.75;101390.25;7399153;19;1095;-45
2023/03/29 10:38:40;;;;;;;;;;;;;;;17.93;61.72;101406.53;7403134;19;1086;-45
2023/03/29 10:41:12;;;;;;;;;;;;;;;18.03;61.18;101399.53;7401927;19;1246;-44
2023/03/29 10:43:45;;;;;;;;;;;;;;;18.06;61.08;101404.66;7399417;19;963;-45
2023/03/29 10:46:20;;;;;;;;;;;;;;;18.04;60.97;101388.69;7400237;19;1868;-45
2023/03/29 10:48:51;;;;;;;;;;;;;;;18.12;61.09;101393.47;7400106;19;979;-45
2023/03/29 10:51:20;;;;;;;;;;;;;;;18.04;61.14;101383.34;7398488;19;1062;-45
2023/03/29 10:53:49;;;;;;;;;;;;;;;18.08;60.76;101389.31;7398533;19;1042;-45
2023/03/29 10:56:26;;;;;;;;;;;;;;;18.06;60.98;101377.88;7402642;19;1196;-45
2023/03/29 10:59:02;;;;;;;;;;;;;;;18.11;61.37;101373.06;7402417;19;1614;-45
2023/03/29 11:01:36;;;;;;;;;;;;;;;18.17;60.65;101367.25;7398092;19;1102;-45
2023/03/29 11:04:19;;;;;;;;;;;;;;;18.21;60.49;101360.69;7400801;19;1091;-45
2023/03/29 11:07:10;;;;;;;;;;;;;;;18.24;60.36;101349.75;7396875;19;1838;-45
2023/03/29 11:09:47;;;;;;;;;;;;;;;18.19;60.92;101346.56;7398038;19;1016;-45
2023/03/29 11:12:19;;;;;;;;;;;;;;;18.26;60.92;101358.53;7402264;19;1266;-45
2023/03/29 11:14:56;;;;;;;;;;;;;;;18.13;60.94;101339.00;7402199;19;1038;-45
2023/03/29 11:17:36;;;;;;;;;;;;;;;18.08;61.38;101331.31;7399598;19;1987;-45
2023/03/29 11:20:09;;;;;;;;;;;;;;;17.97;61.23;101335.78;7402082;19;963;-45
2023/03/29 11:22:43;;;;;;;;;;;;;;;17.99;61.29;101344.53;7398026;19;999;-45
2023/03/29 11:25:20;;;;;;;;;;;;;;;18.03;61.05;101340.66;7397435;19;1031;-44
2023/03/29 11:27:52;;;;;;;;;;;;;;;18.01;61.41;101334.56;7399624;19;1914;-45
2023/03/29 11:30:24;;;;;;;;;;;;;;;17.97;61.44;101325.06;7400940;19;1864;-45
2023/03/29 11:33:02;;;;;;;;;;;;;;;17.99;61.41;101323.13;7399693;19;1039;-45
2023/03/29 11:35:43;;;;;;;;;;;;;;;18.08;61.00;101327.78;7397762;19;1034;-45
2023/03/29 11:38:18;;;;;;;;;;;;;;;18.07;61.45;101326.06;7400631;19;1962;-45
2023/03/29 11:40:52;;;;;;;;;;;;;;;18.04;61.02;101323.63;7402206;19;2064;-45
2023/03/29 11:43:24;;;;;;;;;;;;;;;18.11;61.33;101326.72;7407406;19;1713;-45
2023/03/29 11:45:56;;;;;;;;;;;;;;;18.11;61.27;101327.56;7404336;19;1868;-45
2023/03/29 11:48:29;;;;;;;;;;;;;;;18.15;61.18;101321.00;7409103;19;1183;-45
2023/03/29 11:50:59;;;;;;;;;;;;;;;18.12;60.84;101323.88;7408557;19;1956;-45
2023/03/29 11:53:31;;;;;;;;;;;;;;;18.16;61.02;101319.16;7408837;19;963;-45
2023/03/29 11:56:04;;;;;;;;;;;;;;;18.00;61.37;101322.16;7407302;19;1050;-45
2023/03/29 11:58:33;;;;;;;;;;;;;;;17.88;61.86;101327.44;7404241;19;1034;-45
2023/03/29 12:01:06;;;;;;;;;;;;;;;17.87;61.99;101320.41;7408530;19;1823;-45
2023/03/29 12:03:41;;;;;;;;;;;;;;;17.84;61.76;101309.91;7408913;19;966;-45
2023/03/29 12:06:14;;;;;;;;;;;;;;;17.87;61.48;101301.66;7403640;19;1850;-45
2023/03/29 12:08:45;;;;;;;;;;;;;;;17.97;61.21;101317.03;7407646;19;962;-45
2023/03/29 12:11:20;;;;;;;;;;;;;;;17.96;61.60;101312.63;7403956;19;1220;-45
2023/03/29 12:13:58;;;;;;;;;;;;;;;17.99;61.20;101315.09;7405827;19;1041;-45
2023/03/29 12:16:32;;;;;;;;;;;;;;;18.01;61.26;101314.00;7404311;19;1030;-44
2023/03/29 12:19:08;;;;;;;;;;;;;;;17.96;61.36;101318.00;7404264;19;1025;-44
2023/03/29 12:21:39;;;;;;;;;;;;;;;17.95;61.30;101317.16;7403927;19;1035;-45
2023/03/29 12:24:07;;;;;;;;;;;;;;;17.81;61.52;101331.53;7405884;19;1125;-45
2023/03/29 12:26:45;;;;;;;;;;;;;;;17.70;62.28;101331.44;7403091;19;1859;-45
2023/03/29 12:29:24;;;;;;;;;;;;;;;17.80;61.81;101319.09;7403321;19;1035;-45
2023/03/29 12:31:58;;;;;;;;;;;;;;;17.81;62.09;101336.88;7403846;19;1034;-45
2023/03/29 12:34:37;;;;;;;;;;;;;;;17.79;62.02;101333.47;7403505;19;1014;-45
2023/03/29 12:37:19;;;;;;;;;;;;;;;17.78;61.81;101336.25;7403900;19;979;-44
2023/03/29 12:39:48;;;;;;;;;;;;;;;17.87;61.44;101333.78;7404859;19;1129;-45
2023/03/29 12:42:18;;;;;;;;;;;;;;;17.89;61.79;101323.81;7407630;19;2085;-45
2023/03/29 12:44:49;;;;;;;;;;;;;;;18.03;61.39;101327.28;7403389;19;1078;-45
2023/03/29 12:47:20;;;;;;;;;;;;;;;18.13;61.10;101330.97;7401341;19;1840;-45
2023/03/29 12:49:54;;;;;;;;;;;;;;;18.05;60.98;101323.50;7406210;19;1997;-44
2023/03/29 12:52:28;;;;;;;;;;;;;;;17.90;61.64;101332.69;7402819;19;1088;-45
2023/03/29 12:54:57;;;;;;;;;;;;;;;17.72;61.84;101324.16;7407013;19;1125;-45
2023/03/29 12:57:41;;;;;;;;;;;;;;;17.76;61.78;101322.97;7402902;19;1193;-45
2023/03/29 13:00:20;;;;;;;;;;;;;;;17.69;62.08;101316.38;7402815;19;980;-45
2023/03/29 13:03:01;;;;;;;;;;;;;;;17.66;62.22;101328.16;7402480;19;1038;-45
2023/03/29 13:05:35;;;;;;;;;;;;;;;17.67;62.27;101321.00;7405382;19;1295;-45
2023/03/29 13:08:13;;;;;;;;;;;;;;;17.68;62.24;101320.84;7401527;19;1854;-45
2023/03/29 13:10:43;;;;;;;;;;;;;;;17.72;62.15;101316.13;7403391;19;1951;-45